Time;durP1;ratioP1;P1;durP2;ratioP2;P2;SDS_P1;SDS_P2;PMS_P1;PMS_P2;Temp;Humidity;BMP_temperature;BMP_pressure;BME280_temperature;BME280_humidity;BME280_pressure;Samples;Min_cycle;Max_cycle;Signal;HPM_P1;HPM_P2
2023/12/28 00:00:06;;;;;;;8.10;6.47;;;;;;;20.61;44.02;102222.94;5035497;28;20041;-58
2023/12/28 00:02:34;;;;;;;9.63;6.78;;;;;;;20.62;44.12;102222.00;5032700;28;20052;-61
2023/12/28 00:05:01;;;;;;;6.65;5.95;;;;;;;20.64;44.14;102227.25;5031827;28;20375;-60
2023/12/28 00:07:29;;;;;;;9.25;6.70;;;;;;;20.63;44.03;102223.72;5026489;28;20057;-58
2023/12/28 00:09:56;;;;;;;10.23;7.30;;;;;;;20.61;44.00;102222.94;5033524;28;20046;-59
2023/12/28 00:12:23;;;;;;;10.05;6.43;;;;;;;20.61;44.13;102217.56;5032888;28;20044;-59
2023/12/28 00:14:51;;;;;;;8.57;6.57;;;;;;;20.60;44.14;102226.63;5029829;28;20056;-59
2023/12/28 00:17:18;;;;;;;8.10;6.15;;;;;;;20.58;44.25;102231.25;5026382;28;20050;-60
2023/12/28 00:19:46;;;;;;;9.95;6.60;;;;;;;20.57;43.86;102229.50;5026806;28;20057;-60
2023/12/28 00:22:13;;;;;;;8.77;7.03;;;;;;;20.56;43.67;102229.63;5032358;28;20041;-61
2023/12/28 00:24:41;;;;;;;10.32;6.97;;;;;;;20.54;43.73;102232.44;5029778;28;20049;-61
2023/12/28 00:27:08;;;;;;;9.57;6.65;;;;;;;20.53;43.61;102236.06;5026710;28;20054;-59
2023/12/28 00:29:38;;;;;;;8.95;6.47;;;;;;;20.53;43.74;102241.44;5026892;28;20064;-59
2023/12/28 00:32:06;;;;;;;7.68;6.53;;;;;;;20.52;44.06;102231.66;5032376;28;20056;-59
2023/12/28 00:34:33;;;;;;;9.15;6.60;;;;;;;20.51;43.97;102227.25;5030054;28;20052;-59
2023/12/28 00:37:01;;;;;;;7.88;6.45;;;;;;;20.51;44.08;102231.78;5028369;28;20046;-61
2023/12/28 00:39:28;;;;;;;8.68;7.00;;;;;;;20.51;44.07;102246.09;5029237;28;20056;-62
2023/12/28 00:41:56;;;;;;;7.70;5.90;;;;;;;20.53;44.14;102241.44;5032194;28;20053;-61
2023/12/28 00:44:23;;;;;;;10.05;6.20;;;;;;;20.51;44.11;102238.03;5029770;28;20056;-61
2023/12/28 00:46:50;;;;;;;10.15;6.60;;;;;;;20.50;44.27;102233.63;5025028;28;20507;-60
2023/12/28 00:49:18;;;;;;;7.40;6.30;;;;;;;20.48;44.03;102233.69;5025828;28;20049;-60
2023/12/28 00:51:45;;;;;;;9.68;6.68;;;;;;;20.48;44.24;102227.44;5032523;28;20067;-60
2023/12/28 00:54:13;;;;;;;9.25;6.90;;;;;;;20.47;44.15;102229.25;5029628;28;20045;-60
2023/12/28 00:56:40;;;;;;;9.15;6.95;;;;;;;20.46;44.18;102227.53;5026039;28;20481;-60
2023/12/28 00:59:07;;;;;;;7.68;6.32;;;;;;;20.45;44.29;102233.00;5025841;28;20049;-62
2023/12/28 01:01:35;;;;;;;7.28;6.00;;;;;;;20.45;44.18;102227.63;5028198;28;20061;-61
2023/12/28 01:04:02;;;;;;;8.27;6.43;;;;;;;20.44;44.13;102228.59;5032919;28;20061;-61
2023/12/28 01:06:30;;;;;;;8.43;6.57;;;;;;;20.44;44.19;102233.97;5024601;28;20050;-60
2023/12/28 01:08:57;;;;;;;10.55;6.28;;;;;;;20.44;44.25;102225.91;5026688;28;20053;-61
2023/12/28 01:11:25;;;;;;;10.05;6.78;;;;;;;20.43;44.11;102233.13;5031847;28;20158;-61
2023/12/28 01:13:53;;;;;;;10.23;6.80;;;;;;;20.43;44.01;102234.97;5029326;28;20523;-61
2023/12/28 01:16:20;;;;;;;9.38;7.28;;;;;;;20.42;44.06;102233.25;5026097;28;20057;-60
2023/12/28 01:18:48;;;;;;;8.52;6.15;;;;;;;20.42;44.11;102235.94;5028540;28;20068;-59
2023/12/28 01:21:16;;;;;;;8.13;6.22;;;;;;;20.41;44.18;102239.56;5038789;28;20047;-59
2023/12/28 01:23:44;;;;;;;9.57;6.78;;;;;;;20.41;44.05;102244.94;5035351;28;20040;-60
2023/12/28 01:26:14;;;;;;;8.50;6.10;;;;;;;20.40;44.17;102240.53;5036970;28;20073;-60
2023/12/28 01:28:41;;;;;;;8.20;6.22;;;;;;;20.39;44.24;102247.75;5039611;28;20053;-61
2023/12/28 01:31:09;;;;;;;9.18;6.82;;;;;;;20.40;44.11;102240.53;5033521;28;20120;-61
2023/12/28 01:33:37;;;;;;;7.95;7.15;;;;;;;20.39;44.14;102238.81;5035760;28;20511;-61
2023/12/28 01:36:26;;;;;;;7.82;6.20;;;;;;;20.38;44.07;102245.19;5028097;28;20065;-60
2023/12/28 01:38:54;;;;;;;8.73;6.72;;;;;;;20.38;44.25;102245.19;5036277;28;20041;-59
2023/12/28 01:41:21;;;;;;;7.68;6.15;;;;;;;20.38;44.20;102242.50;5033980;28;20426;-59
2023/12/28 01:43:49;;;;;;;7.88;6.50;;;;;;;20.36;44.18;102239.03;5030541;28;20408;-59
2023/12/28 01:46:18;;;;;;;9.23;6.57;;;;;;;20.37;44.19;102252.34;5027986;28;20049;-60
2023/12/28 01:48:48;;;;;;;6.68;5.93;;;;;;;20.36;43.88;102252.47;5035377;28;20048;-61
2023/12/28 01:51:17;;;;;;;9.65;6.35;;;;;;;20.35;44.03;102246.25;5032672;28;20076;-61
2023/12/28 01:53:45;;;;;;;8.90;6.15;;;;;;;20.34;44.16;102247.22;5030963;28;20061;-61
2023/12/28 01:56:13;;;;;;;7.57;6.07;;;;;;;20.35;44.08;102240.84;5029881;28;20042;-61
2023/12/28 01:58:43;;;;;;;7.93;6.18;;;;;;;20.34;43.98;102244.53;5036803;28;20383;-60
2023/12/28 02:01:11;;;;;;;8.38;6.15;;;;;;;20.34;44.08;102236.47;5031238;28;20056;-60
2023/12/28 02:03:39;;;;;;;9.93;6.03;;;;;;;20.36;44.28;102244.41;5029254;28;20500;-60
2023/12/28 02:06:07;;;;;;;7.53;6.05;;;;;;;20.34;43.93;102246.34;5032690;28;20046;-60
2023/12/28 02:08:35;;;;;;;7.22;5.78;;;;;;;20.34;44.11;102241.84;5034203;28;20415;-61
2023/12/28 02:11:03;;;;;;;8.02;6.50;;;;;;;20.35;44.07;102240.00;5033023;28;20055;-61
2023/12/28 02:13:30;;;;;;;9.35;6.32;;;;;;;20.34;43.99;102240.97;5028593;28;20053;-61
2023/12/28 02:16:11;;;;;;;6.70;5.70;;;;;;;20.33;43.91;102240.09;5030033;28;20046;-61
2023/12/28 02:18:44;;;;;;;6.95;5.97;;;;;;;20.33;43.94;102228.47;5032362;28;20507;-60
2023/12/28 02:21:13;;;;;;;8.07;6.00;;;;;;;20.33;43.87;102241.91;5034750;28;20049;-60
2023/12/28 02:23:47;;;;;;;9.32;6.22;;;;;;;20.32;43.75;102238.38;5031371;28;20073;-59
2023/12/28 02:26:15;;;;;;;8.85;5.70;;;;;;;20.32;44.00;102233.00;5031597;28;20046;-60
2023/12/28 02:28:44;;;;;;;9.27;5.90;;;;;;;20.33;43.73;102239.22;5040448;28;20053;-61
2023/12/28 02:31:37;;;;;;;7.55;5.53;;;;;;;20.31;43.84;102233.09;5027730;28;20046;-61
2023/12/28 02:34:21;;;;;;;6.45;5.28;;;;;;;20.31;43.88;102230.41;5041727;28;20064;-61
2023/12/28 02:36:51;;;;;;;7.85;5.70;;;;;;;20.31;44.05;102239.34;5034099;28;20033;-61
2023/12/28 02:39:20;;;;;;;7.80;5.60;;;;;;;20.30;43.70;102229.56;5031015;28;20049;-61
2023/12/28 02:41:47;;;;;;;6.65;4.82;;;;;;;20.31;43.85;102236.66;5032596;28;20056;-61
2023/12/28 02:44:15;;;;;;;6.68;5.40;;;;;;;20.30;43.74;102237.63;5031722;28;20152;-61
2023/12/28 02:46:42;;;;;;;7.60;5.80;;;;;;;20.30;43.71;102231.38;5029039;28;20491;-59
2023/12/28 02:49:11;;;;;;;7.00;5.45;;;;;;;20.31;43.68;102230.41;5026557;28;20440;-59
2023/12/28 02:51:39;;;;;;;7.13;5.82;;;;;;;20.30;43.66;102226.00;5030707;28;20499;-59
2023/12/28 02:54:06;;;;;;;5.82;4.90;;;;;;;20.29;43.67;102221.56;5035242;28;20060;-59
2023/12/28 02:56:34;;;;;;;7.45;5.45;;;;;;;20.29;43.84;102221.56;5028790;28;20424;-60
2023/12/28 02:59:03;;;;;;;6.75;4.88;;;;;;;20.29;43.60;102221.56;5030809;28;20038;-59
2023/12/28 03:01:30;;;;;;;7.20;4.80;;;;;;;20.28;43.61;102219.88;5034609;28;20059;-59
2023/12/28 03:03:58;;;;;;;6.60;5.05;;;;;;;20.27;43.66;102215.47;5033034;28;20045;-59
2023/12/28 03:06:25;;;;;;;6.45;5.00;;;;;;;20.27;43.74;102212.78;5028925;28;20046;-61
2023/12/28 03:08:53;;;;;;;7.03;4.72;;;;;;;20.28;43.60;102203.72;5026742;28;20054;-60
2023/12/28 03:11:20;;;;;;;6.45;4.75;;;;;;;20.27;43.56;102205.56;5034761;28;20072;-61
2023/12/28 03:13:48;;;;;;;6.53;5.22;;;;;;;20.26;43.58;102195.78;5031127;28;20038;-61
2023/12/28 03:16:15;;;;;;;6.30;4.75;;;;;;;20.25;43.67;102189.53;5027862;28;20053;-61
2023/12/28 03:18:42;;;;;;;6.32;4.97;;;;;;;20.27;43.66;102191.25;5026267;28;20054;-61
2023/12/28 03:21:10;;;;;;;6.32;5.05;;;;;;;20.25;43.71;102192.22;5037012;28;20045;-62
2023/12/28 03:23:38;;;;;;;6.20;4.85;;;;;;;20.25;43.50;102177.91;5030980;28;20407;-61
2023/12/28 03:26:05;;;;;;;7.07;4.63;;;;;;;20.24;43.67;102177.03;5028218;28;20056;-62
2023/12/28 03:28:34;;;;;;;7.00;5.15;;;;;;;20.25;43.67;102183.28;5027110;28;20057;-61
2023/12/28 03:31:04;;;;;;;6.47;5.18;;;;;;;20.25;43.67;102188.66;5031372;28;20388;-61
2023/12/28 03:33:31;;;;;;;5.30;4.10;;;;;;;20.23;43.50;102179.84;5040558;28;20056;-59
2023/12/28 03:35:59;;;;;;;6.75;4.68;;;;;;;20.23;43.66;102186.06;5027397;28;20052;-61
2023/12/28 03:38:27;;;;;;;6.68;4.72;;;;;;;20.23;43.54;102182.53;5026761;28;20054;-60
2023/12/28 03:40:55;;;;;;;6.43;4.60;;;;;;;20.23;43.59;102186.06;5030852;28;20045;-60
2023/12/28 03:43:22;;;;;;;6.82;5.10;;;;;;;20.23;43.55;102185.22;5035052;28;20045;-58
2023/12/28 03:45:49;;;;;;;6.07;4.60;;;;;;;20.23;43.55;102186.06;5025752;28;20054;-58
2023/12/28 03:48:17;;;;;;;4.93;4.10;;;;;;;20.23;43.42;102174.47;5027476;28;20046;-60
2023/12/28 03:50:45;;;;;;;6.05;4.78;;;;;;;20.22;43.52;102178.13;5042099;28;20044;-60
2023/12/28 03:53:12;;;;;;;5.43;4.40;;;;;;;20.22;43.61;102179.00;5032381;28;20041;-61
2023/12/28 03:55:39;;;;;;;5.43;4.28;;;;;;;20.22;43.46;102170.06;5033894;28;20507;-60
2023/12/28 03:58:07;;;;;;;7.97;4.68;;;;;;;20.21;43.39;102171.84;5036162;28;20049;-61
2023/12/28 04:00:35;;;;;;;5.53;4.25;;;;;;;20.23;43.31;102179.84;5029616;28;20049;-60
2023/12/28 04:03:03;;;;;;;7.20;4.93;;;;;;;20.21;43.29;102182.63;5034410;28;20049;-60
2023/12/28 04:05:30;;;;;;;5.93;4.57;;;;;;;20.20;43.32;102172.84;5032846;28;20463;-60
2023/12/28 04:07:58;;;;;;;6.40;4.40;;;;;;;20.20;43.27;102175.53;5031112;28;20050;-60
2023/12/28 04:10:31;;;;;;;7.03;4.70;;;;;;;20.22;43.29;102172.75;5030578;28;20072;-60
2023/12/28 04:12:59;;;;;;;;;;;;;;;20.17;43.26;102173.03;5031340;28;20065;-60
2023/12/28 04:15:27;;;;;;;5.65;4.22;;;;;;;20.19;43.23;102167.56;5029488;28;20294;-60
2023/12/28 04:17:55;;;;;;;5.38;4.78;;;;;;;20.19;43.24;102165.75;5031800;28;20071;-58
2023/12/28 04:20:23;;;;;;;5.47;4.50;;;;;;;20.21;43.23;102171.00;5030026;28;20049;-59
2023/12/28 04:22:50;;;;;;;5.00;4.20;;;;;;;20.19;43.20;102160.38;5029175;28;20041;-59
2023/12/28 04:25:18;;;;;;;5.43;4.05;;;;;;;20.19;43.24;102163.06;5025165;28;20074;-59
2023/12/28 04:27:45;;;;;;;5.85;3.75;;;;;;;20.18;43.21;102161.34;5029951;28;20050;-57
2023/12/28 04:30:13;;;;;;;6.25;4.15;;;;;;;20.18;43.15;102158.66;5029441;28;20053;-58
2023/12/28 04:32:40;;;;;;;6.32;4.82;;;;;;;20.17;43.16;102164.13;5028842;28;20037;-58
2023/12/28 04:35:08;;;;;;;5.43;4.47;;;;;;;20.18;43.17;102164.03;5025926;28;20057;-58
2023/12/28 04:37:36;;;;;;;5.72;4.22;;;;;;;20.17;43.13;102173.03;5028137;28;20090;-58
2023/12/28 04:40:04;;;;;;;5.15;3.65;;;;;;;20.18;43.23;102176.63;5029672;28;20064;-58
2023/12/28 04:42:32;;;;;;;4.57;3.80;;;;;;;20.16;43.06;102176.69;5027261;28;20053;-59
2023/12/28 04:44:59;;;;;;;9.55;4.45;;;;;;;20.16;42.99;102182.06;5024899;28;20050;-59
2023/12/28 04:47:27;;;;;;;5.38;3.95;;;;;;;20.17;42.99;102185.63;5039256;28;20412;-61
2023/12/28 04:49:54;;;;;;;7.28;3.78;;;;;;;20.16;43.00;102184.78;5028981;28;20056;-60
2023/12/28 04:52:22;;;;;;;4.80;3.70;;;;;;;20.16;43.06;102181.22;5030238;28;20044;-60
2023/12/28 04:54:49;;;;;;;6.13;4.05;;;;;;;20.17;43.13;102177.56;5024581;28;20496;-60
2023/12/28 04:57:17;;;;;;;5.47;3.95;;;;;;;20.17;43.04;102189.16;5026895;28;20539;-60
2023/12/28 04:59:45;;;;;;;4.97;3.65;;;;;;;20.16;43.05;102175.84;5040974;28;20503;-60
2023/12/28 05:02:12;;;;;;;5.70;3.88;;;;;;;20.16;43.08;102184.78;5030886;28;20064;-60
2023/12/28 05:04:39;;;;;;;5.20;3.78;;;;;;;20.16;43.04;102192.84;5031505;28;20049;-61
2023/12/28 05:07:07;;;;;;;5.88;4.05;;;;;;;20.16;43.11;102187.47;5026781;28;20046;-58
2023/12/28 05:09:34;;;;;;;4.50;3.42;;;;;;;20.15;43.15;102187.56;5041993;28;20403;-59
2023/12/28 05:12:02;;;;;;;6.13;4.13;;;;;;;20.15;43.14;102185.75;5026697;28;20077;-60
2023/12/28 05:14:30;;;;;;;5.28;3.83;;;;;;;20.14;43.18;102189.41;5024889;28;20504;-60
2023/12/28 05:16:57;;;;;;;5.72;3.83;;;;;;;20.14;43.15;102186.72;5033766;28;20492;-60
2023/12/28 05:19:25;;;;;;;5.47;3.70;;;;;;;20.15;43.15;102185.75;5029783;28;20041;-60
2023/12/28 05:21:52;;;;;;;4.47;3.55;;;;;;;20.13;43.14;102187.66;5038218;28;20046;-60
2023/12/28 05:24:20;;;;;;;4.63;3.72;;;;;;;20.14;43.27;102191.22;5026011;28;20057;-60
2023/12/28 05:26:47;;;;;;;5.15;3.70;;;;;;;20.13;43.09;102201.09;5030181;28;20500;-59
2023/12/28 05:29:14;;;;;;;5.85;3.75;;;;;;;20.13;43.22;102194.88;5030146;28;20049;-59
2023/12/28 05:31:42;;;;;;;5.50;3.78;;;;;;;20.13;43.10;102193.03;5029236;28;20049;-59
2023/12/28 05:34:10;;;;;;;4.55;3.67;;;;;;;20.12;43.23;102194.00;5025825;28;20057;-59
2023/12/28 05:36:38;;;;;;;4.10;3.17;;;;;;;20.12;43.09;102182.41;5029863;28;20046;-59
2023/12/28 05:39:05;;;;;;;6.25;4.28;;;;;;;20.11;43.07;102184.22;5034189;28;20511;-59
2023/12/28 05:41:33;;;;;;;4.45;3.33;;;;;;;20.12;43.04;102182.41;5030324;28;20045;-59
2023/12/28 05:44:00;;;;;;;6.05;3.92;;;;;;;20.11;43.18;102181.53;5025732;28;20423;-60
2023/12/28 05:46:29;;;;;;;4.75;3.13;;;;;;;20.10;43.08;102179.81;5030942;28;20053;-58
2023/12/28 05:48:56;;;;;;;4.50;3.38;;;;;;;20.10;43.06;102174.44;5029980;28;20046;-58
2023/12/28 05:51:24;;;;;;;4.13;3.20;;;;;;;20.11;42.90;102178.00;5027795;28;20042;-59
2023/12/28 05:53:51;;;;;;;5.13;3.20;;;;;;;20.11;43.00;102176.16;5024073;28;20049;-58
2023/12/28 05:56:18;;;;;;;4.22;3.35;;;;;;;20.11;43.14;102161.84;5030102;28;20049;-58
2023/12/28 05:58:46;;;;;;;4.63;3.30;;;;;;;20.10;43.09;102174.44;5029746;28;20042;-59
2023/12/28 06:01:13;;;;;;;4.63;3.45;;;;;;;20.10;43.02;102177.13;5027967;28;20046;-54
2023/12/28 06:03:41;;;;;;;6.13;3.33;;;;;;;20.11;43.01;102173.47;5025170;28;20054;-59
2023/12/28 06:06:10;;;;;;;4.22;3.08;;;;;;;20.12;42.90;102168.94;5032447;28;20057;-59
2023/12/28 06:08:37;;;;;;;4.50;3.45;;;;;;;20.13;43.00;102174.22;5033336;28;20053;-58
2023/12/28 06:11:05;;;;;;;4.43;3.03;;;;;;;20.13;42.88;102179.59;5031135;28;20056;-58
2023/12/28 06:13:32;;;;;;;4.68;3.40;;;;;;;20.13;42.84;102173.34;5028747;28;20045;-59
2023/12/28 06:15:59;;;;;;;4.65;3.60;;;;;;;20.11;42.96;102173.47;5033429;28;20077;-59
2023/12/28 06:18:27;;;;;;;4.57;3.38;;;;;;;20.11;42.94;102181.53;5033009;28;20048;-59
2023/12/28 06:20:55;;;;;;;4.28;3.28;;;;;;;20.12;42.93;102182.41;5030629;28;20050;-59
2023/12/28 06:23:22;;;;;;;5.65;3.33;;;;;;;20.10;43.00;102176.28;5028429;28;20046;-59
2023/12/28 06:25:49;;;;;;;4.05;2.95;;;;;;;20.11;42.86;102170.78;5033068;28;20054;-59
2023/12/28 06:28:17;;;;;;;4.88;3.28;;;;;;;20.08;42.88;102170.97;5032796;28;20053;-59
2023/12/28 06:30:44;;;;;;;4.28;3.42;;;;;;;20.09;42.89;102187.97;5030893;28;20054;-60
2023/12/28 06:33:12;;;;;;;5.32;3.83;;;;;;;20.09;42.82;102190.66;5028481;28;20045;-60
2023/12/28 06:35:39;;;;;;;5.57;3.00;;;;;;;20.09;43.01;102190.66;5033112;28;20050;-61
2023/12/28 06:38:07;;;;;;;4.40;3.42;;;;;;;20.08;42.86;102192.50;5032929;28;20045;-60
2023/12/28 06:40:34;;;;;;;4.13;3.40;;;;;;;20.07;42.97;102198.84;5029436;28;20057;-60
2023/12/28 06:43:01;;;;;;;4.75;3.15;;;;;;;20.08;42.99;102207.75;5028171;28;20056;-60
2023/12/28 06:45:29;;;;;;;3.70;2.60;;;;;;;20.08;43.03;102205.06;5032736;28;20058;-60
2023/12/28 06:47:56;;;;;;;4.55;3.40;;;;;;;20.06;42.93;102215.09;5032875;28;20041;-59
2023/12/28 06:50:24;;;;;;;5.20;3.58;;;;;;;20.07;42.83;102211.44;5030754;28;20053;-59
2023/12/28 06:52:52;;;;;;;4.25;2.85;;;;;;;20.06;42.73;102215.94;5023327;28;20046;-59
2023/12/28 06:55:19;;;;;;;4.55;3.10;;;;;;;20.05;42.80;102211.50;5032841;28;20041;-59
2023/12/28 06:57:47;;;;;;;5.28;2.85;;;;;;;20.06;42.78;102209.72;5032781;28;20050;-59
2023/12/28 07:00:14;;;;;;;3.72;2.95;;;;;;;20.05;42.84;102214.19;5030133;28;20052;-59
2023/12/28 07:02:42;;;;;;;3.85;2.90;;;;;;;20.05;42.83;102218.72;5028056;28;20053;-58
2023/12/28 07:05:09;;;;;;;3.72;3.28;;;;;;;20.05;42.70;102219.56;5032652;28;20411;-59
2023/12/28 07:07:37;;;;;;;4.28;3.35;;;;;;;20.03;42.85;102221.53;5032010;28;20042;-61
2023/12/28 07:10:05;;;;;;;4.20;3.25;;;;;;;20.05;42.61;102224.09;5029948;28;20109;-59
2023/12/28 07:12:32;;;;;;;4.15;3.10;;;;;;;20.04;42.68;102217.84;5027533;28;20045;-59
2023/12/28 07:14:59;;;;;;;5.57;3.38;;;;;;;20.04;42.59;102220.53;5032573;28;20056;-59
2023/12/28 07:17:27;;;;;;;5.13;3.45;;;;;;;20.03;42.47;102228.72;5031833;28;20041;-58
2023/12/28 07:19:54;;;;;;;3.88;2.90;;;;;;;20.03;42.54;102215.28;5028487;28;20045;-58
2023/12/28 07:22:22;;;;;;;4.80;3.63;;;;;;;20.03;42.44;102228.72;5027339;28;20041;-58
2023/12/28 07:24:49;;;;;;;5.32;3.17;;;;;;;20.04;42.41;102234.00;5030816;28;20046;-59
2023/12/28 07:27:16;;;;;;;4.50;2.65;;;;;;;20.02;42.47;102235.94;5031699;28;20049;-61
2023/12/28 07:29:44;;;;;;;4.35;3.40;;;;;;;20.03;42.73;102244.84;5030198;28;20041;-60
2023/12/28 07:32:11;;;;;;;4.78;2.85;;;;;;;20.00;42.38;102236.00;5027253;28;20049;-61
2023/12/28 07:34:38;;;;;;;4.40;2.75;;;;;;;20.02;42.63;102244.00;5031728;28;20045;-60
2023/12/28 07:37:06;;;;;;;4.10;3.30;;;;;;;20.02;42.53;102240.44;5031647;28;20045;-58
2023/12/28 07:39:34;;;;;;;4.85;3.67;;;;;;;20.01;42.44;102239.56;5029459;28;20048;-59
2023/12/28 07:42:01;;;;;;;6.53;3.08;;;;;;;19.99;42.52;102237.00;5027121;28;20408;-59
2023/12/28 07:44:28;;;;;;;3.85;2.63;;;;;;;20.00;42.74;102251.28;5031361;28;20045;-59
2023/12/28 07:46:56;;;;;;;4.10;3.10;;;;;;;20.00;42.63;102251.28;5031049;28;20076;-59
2023/12/28 07:49:23;;;;;;;3.75;2.90;;;;;;;20.01;42.62;102250.31;5028784;28;20053;-59
2023/12/28 07:51:51;;;;;;;4.05;2.90;;;;;;;20.01;42.52;102253.00;5026664;28;20198;-59
2023/12/28 07:54:18;;;;;;;4.22;2.90;;;;;;;19.99;42.56;102258.50;5030755;28;20056;-57
2023/12/28 07:56:46;;;;;;;5.63;3.03;;;;;;;19.97;41.83;102267.59;5029544;28;20068;-59
2023/12/28 07:59:13;;;;;;;4.55;3.00;;;;;;;19.96;41.71;102258.69;5034850;28;20044;-59
2023/12/28 08:01:40;;;;;;;5.10;3.42;;;;;;;19.97;41.93;102255.06;5026214;28;20050;-60
2023/12/28 08:04:08;;;;;;;3.55;2.80;;;;;;;19.96;42.21;102256.00;5031639;28;20052;-60
2023/12/28 08:06:35;;;;;;;4.22;3.47;;;;;;;19.97;42.35;102263.13;5032972;28;20068;-60
2023/12/28 08:09:03;;;;;;;5.57;2.75;;;;;;;19.98;42.37;102258.59;5021458;28;20038;-58
2023/12/28 08:11:31;;;;;;;4.75;2.83;;;;;;;19.99;42.03;102263.88;5024775;28;20057;-61
2023/12/28 08:13:58;;;;;;;4.38;2.30;;;;;;;20.00;42.09;102265.59;5029408;28;20511;-61
2023/12/28 08:16:26;;;;;;;4.53;2.92;;;;;;;20.00;42.16;102262.91;5034757;28;20046;-62
2023/12/28 08:18:53;;;;;;;3.90;2.58;;;;;;;20.02;42.03;102257.44;5026513;28;20045;-62
2023/12/28 08:21:21;;;;;;;4.75;2.70;;;;;;;20.04;42.01;102258.19;5025128;28;20046;-62
2023/12/28 08:23:48;;;;;;;5.75;2.70;;;;;;;20.06;41.69;102258.09;5029135;28;20057;-62
2023/12/28 08:26:16;;;;;;;3.55;2.90;;;;;;;20.07;41.76;102263.38;5029125;28;20045;-61
2023/12/28 08:28:44;;;;;;;4.20;2.83;;;;;;;20.08;41.58;102265.06;5024114;28;20443;-59
2023/12/28 08:31:12;;;;;;;4.07;3.03;;;;;;;20.08;41.53;102257.00;5024616;28;20050;-59
2023/12/28 08:33:39;;;;;;;4.25;3.05;;;;;;;20.11;41.72;102262.19;5029411;28;20050;-63
2023/12/28 08:36:08;;;;;;;4.60;2.85;;;;;;;20.12;41.51;102263.06;5029106;28;20049;-61
2023/12/28 08:38:38;;;;;;;4.72;2.97;;;;;;;20.15;41.62;102265.53;5023790;28;20045;-60
2023/12/28 08:41:08;;;;;;;4.15;2.40;;;;;;;20.15;41.60;102261.03;5024574;28;20050;-61
2023/12/28 08:43:36;;;;;;;4.05;2.85;;;;;;;20.16;41.58;102262.75;5030640;28;20487;-61
2023/12/28 08:46:07;;;;;;;4.00;2.92;;;;;;;20.19;41.55;102265.22;5025532;28;20037;-61
2023/12/28 08:48:35;;;;;;;3.40;2.40;;;;;;;20.17;41.65;102269.84;5024807;28;20400;-59
2023/12/28 08:51:03;;;;;;;6.75;3.25;;;;;;;20.19;41.48;102269.75;5024201;28;20057;-59
2023/12/28 08:53:30;;;;;;;2.90;2.28;;;;;;;20.20;41.54;102272.31;5032656;28;20048;-59
2023/12/28 08:55:58;;;;;;;4.00;2.63;;;;;;;20.21;41.62;102273.19;5028039;28;20051;-60
2023/12/28 08:58:25;;;;;;;3.72;2.65;;;;;;;20.22;41.61;102270.41;5022538;28;20054;-59
2023/12/28 09:00:52;;;;;;;3.50;2.70;;;;;;;20.22;41.45;102259.66;5024056;28;20038;-60
2023/12/28 09:03:20;;;;;;;4.32;2.85;;;;;;;20.23;41.60;102272.13;5029668;28;20522;-60
2023/12/28 09:05:51;;;;;;;4.70;3.15;;;;;;;20.23;41.58;102263.19;5028314;28;20069;-60
2023/12/28 09:08:18;;;;;;;4.25;3.03;;;;;;;20.24;41.47;102270.31;5026503;28;20050;-60
2023/12/28 09:10:45;;;;;;;6.45;3.00;;;;;;;20.24;41.61;102273.84;5018165;28;20055;-61
2023/12/28 09:13:19;;;;;;;5.72;2.97;;;;;;;20.25;41.73;102270.22;5032069;28;20045;-60
2023/12/28 09:15:47;;;;;;;3.60;2.58;;;;;;;20.27;41.72;102283.53;5027287;28;20064;-61
2023/12/28 09:18:14;;;;;;;4.63;2.83;;;;;;;20.27;41.88;102285.38;5023215;28;20046;-60
2023/12/28 09:20:42;;;;;;;5.63;3.15;;;;;;;20.27;41.66;102278.16;5026079;28;20053;-62
2023/12/28 09:23:10;;;;;;;5.03;3.25;;;;;;;20.27;41.68;102280.84;5030046;28;20072;-61
2023/12/28 09:25:39;;;;;;;6.28;3.67;;;;;;;20.29;41.49;102278.06;5026775;28;20053;-61
2023/12/28 09:28:07;;;;;;;4.13;2.65;;;;;;;20.30;41.64;102275.28;5023723;28;20061;-60
2023/12/28 09:30:34;;;;;;;4.13;2.65;;;;;;;20.31;41.87;102278.81;5027622;28;20046;-61
2023/12/28 09:33:02;;;;;;;5.18;2.90;;;;;;;20.32;41.88;102269.78;5029330;28;20057;-60
2023/12/28 09:35:29;;;;;;;5.05;3.42;;;;;;;20.33;42.04;102271.50;5026144;28;20054;-60
2023/12/28 09:37:57;;;;;;;6.38;2.97;;;;;;;20.36;42.04;102272.16;5029771;28;20068;-62
2023/12/28 09:40:25;;;;;;;4.70;3.35;;;;;;;20.39;41.87;102271.97;5029883;28;20068;-63
2023/12/28 09:43:29;;;;;;;5.78;3.63;;;;;;;20.39;41.88;102271.09;5033414;28;20060;-64
2023/12/28 09:45:57;;;;;;;6.43;3.67;;;;;;;20.39;41.90;102271.09;5028199;28;20050;-65
2023/12/28 09:48:24;;;;;;;6.82;4.10;;;;;;;20.39;41.91;102268.41;5033566;28;20049;-65
2023/12/28 09:50:57;;;;;;;6.38;3.83;;;;;;;20.36;41.59;102260.53;5032369;28;20041;-64
2023/12/28 09:53:29;;;;;;;5.15;4.30;;;;;;;20.36;41.63;102260.53;5032250;28;20420;-64
2023/12/28 09:55:57;;;;;;;6.13;4.38;;;;;;;20.34;41.58;102263.34;5028470;28;20050;-65
2023/12/28 09:58:25;;;;;;;7.07;6.10;;;;;;;20.33;41.60;102266.97;5033350;28;20055;-65
2023/12/28 10:00:53;;;;;;;6.55;5.32;;;;;;;20.32;41.45;102256.34;5031324;28;20491;-63
2023/12/28 10:03:20;;;;;;;7.22;5.45;;;;;;;20.31;41.57;102243.88;5028425;28;20046;-63
2023/12/28 10:05:48;;;;;;;6.68;5.43;;;;;;;20.32;41.52;102250.97;5027305;28;20046;-62
2023/12/28 10:08:15;;;;;;;6.95;5.03;;;;;;;20.30;41.82;102243.00;5034506;28;20527;-62
2023/12/28 10:10:50;;;;;;;6.93;5.60;;;;;;;20.32;42.07;102242.88;5024627;28;20045;-63
2023/12/28 10:13:18;;;;;;;6.88;5.30;;;;;;;20.32;42.25;102229.44;5028000;28;20057;-63
2023/12/28 10:15:46;;;;;;;7.05;4.53;;;;;;;20.32;42.33;102232.13;5029089;28;20413;-63
2023/12/28 10:18:13;;;;;;;5.82;4.57;;;;;;;20.33;42.59;102234.72;5036600;28;20067;-60
2023/12/28 10:20:41;;;;;;;7.75;4.90;;;;;;;20.40;42.82;102240.53;5030792;28;20041;-58
2023/12/28 10:23:10;;;;;;;5.35;4.30;;;;;;;20.42;42.86;102227.88;5027808;28;20053;-59
2023/12/28 10:25:37;;;;;;;6.30;4.35;;;;;;;20.47;43.03;102228.41;5029683;28;20045;-59
2023/12/28 10:28:07;;;;;;;8.35;5.10;;;;;;;20.50;42.81;102228.22;5032176;28;20064;-67
2023/12/28 10:30:35;;;;;;;8.52;6.28;;;;;;;20.52;42.68;102225.44;5029607;28;20049;-67
2023/12/28 10:33:06;;;;;;;7.60;6.35;;;;;;;20.53;42.58;102230.69;5028150;28;20057;-63
2023/12/28 10:35:34;;;;;;;9.07;6.28;;;;;;;20.55;42.69;102226.06;5031399;28;20042;-64
2023/12/28 10:38:04;;;;;;;5.05;4.47;;;;;;;20.56;42.98;102216.16;5031595;28;20072;-57
2023/12/28 10:40:32;;;;;;;7.22;4.50;;;;;;;20.57;43.31;102218.75;5028285;28;20392;-61
2023/12/28 10:43:02;;;;;;;7.28;5.43;;;;;;;20.56;42.84;102211.66;5026090;28;20069;-61
2023/12/28 10:45:33;;;;;;;7.22;6.32;;;;;;;20.54;42.76;102210.91;5032988;28;20052;-59
2023/12/28 10:48:09;;;;;;;7.55;6.78;;;;;;;20.53;42.76;102203.78;5026438;28;20403;-62
2023/12/28 10:50:49;;;;;;;9.27;8.30;;;;;;;20.53;42.42;102203.78;5025698;28;20050;-69
2023/12/28 10:53:31;;;;;;;9.38;8.48;;;;;;;20.53;42.43;102203.78;5034248;28;20060;-65
2023/12/28 10:56:33;;;;;;;11.95;8.25;;;;;;;20.54;42.40;102200.16;5025405;28;20061;-65
2023/12/28 10:59:23;;;;;;;10.20;9.02;;;;;;;20.55;42.39;102206.38;5027596;28;20424;-58
2023/12/28 11:01:54;;;;;;;10.40;9.27;;;;;;;20.54;42.38;102194.78;5009269;28;20050;-60
2023/12/28 11:04:42;;;;;;;10.23;8.85;;;;;;;20.54;42.40;102196.56;5033586;28;20408;-59
2023/12/28 11:07:13;;;;;;;12.35;10.25;;;;;;;20.48;42.36;102190.66;5033612;28;20045;-62
2023/12/28 11:09:42;;;;;;;11.70;10.43;;;;;;;20.47;42.46;102191.59;5025480;28;20054;-67
2023/12/28 11:12:10;;;;;;;13.43;11.20;;;;;;;20.46;42.42;102194.41;5015361;28;20049;-69
2023/12/28 11:14:40;;;;;;;12.50;11.30;;;;;;;20.46;42.25;102202.47;5026740;28;20038;-62
2023/12/28 11:17:11;;;;;;;12.23;10.93;;;;;;;20.42;42.43;102192.91;5033458;28;20060;-59
2023/12/28 11:19:40;;;;;;;11.57;9.18;;;;;;;20.43;42.66;102191.91;5031305;28;20056;-58
2023/12/28 11:22:08;;;;;;;9.35;7.30;;;;;;;20.46;42.95;102192.56;5026698;28;20403;-56
2023/12/28 11:24:36;;;;;;;10.48;7.47;;;;;;;20.51;43.03;102178.84;5029146;28;20052;-57
2023/12/28 11:27:04;;;;;;;8.25;7.38;;;;;;;20.55;42.60;102176.78;5032920;28;20055;-64
2023/12/28 11:29:36;;;;;;;10.93;7.82;;;;;;;20.54;42.79;102173.25;5029428;28;20050;-62